Time;durP1;ratioP1;P1;durP2;ratioP2;P2;SDS_P1;SDS_P2;PMS_P1;PMS_P2;Temp;Humidity;BMP_temperature;BMP_pressure;BME280_temperature;BME280_humidity;BME280_pressure;Samples;Min_cycle;Max_cycle;Signal;HPM_P1;HPM_P2
2022/12/15 00:40:16;;;;;;;33.17;19.10;;;;;;;-5.56;100.00;100426.50;10623216;27;20058;-73
2022/12/15 00:45:16;;;;;;;37.30;18.17;;;;;;;-5.25;100.00;100449.25;10615086;27;20032;-74
2022/12/15 01:22:13;;;;;;;36.70;19.07;;;;;;;-5.31;100.00;100434.66;10567337;28;20040;-73
2022/12/15 01:27:14;;;;;;;39.47;17.97;;;;;;;-5.34;100.00;100418.88;10578224;27;20044;-71
2022/12/15 01:32:15;;;;;;;33.97;19.33;;;;;;;-5.14;100.00;100447.13;10580988;27;20031;-71
2022/12/15 01:37:15;;;;;;;40.93;20.00;;;;;;;-5.05;100.00;100447.16;10581195;28;20039;-71
2022/12/15 01:42:16;;;;;;;37.50;20.90;;;;;;;-4.92;100.00;100445.69;10563586;27;20042;-71
2022/12/15 01:47:16;;;;;;;36.73;21.00;;;;;;;-4.86;100.00;100444.19;10580434;28;20069;-72
2022/12/15 01:52:17;;;;;;;40.57;20.80;;;;;;;-4.87;100.00;100458.63;10580492;28;20108;-72
2022/12/15 01:57:28;;;;;;;32.73;18.87;;;;;;;-5.22;100.00;100408.69;10562365;27;20035;-72
2022/12/15 02:02:29;;;;;;;32.80;19.07;;;;;;;-5.11;100.00;100441.41;10580029;27;20032;-72
2022/12/15 02:07:29;;;;;;;45.03;22.50;;;;;;;-5.03;100.00;100458.56;10579391;28;20031;-72
2022/12/15 02:13:01;;;;;;;39.27;19.77;;;;;;;-5.04;100.00;100467.63;10567363;27;20501;-72
2022/12/15 02:18:07;;;;;;;40.53;20.97;;;;;;;-5.17;100.00;100447.44;10577931;27;20032;-72
2022/12/15 02:23:44;;;;;;;41.17;19.90;;;;;;;-5.12;100.00;100471.13;10588699;27;20451;-72
2022/12/15 02:29:07;;;;;;;47.17;21.27;;;;;;;-5.19;100.00;100470.91;10557510;27;20080;-71
2022/12/15 02:34:30;;;;;;;36.87;18.87;;;;;;;-5.27;100.00;100473.59;10563100;27;20051;-71
2022/12/15 02:39:31;;;;;;;40.83;20.20;;;;;;;-5.25;100.00;100460.84;10583921;27;20043;-72
2022/12/15 02:44:40;;;;;;;35.03;21.10;;;;;;;-5.30;100.00;100452.44;10564408;27;20463;-71
2022/12/15 02:49:58;;;;;;;43.17;22.30;;;;;;;-5.25;100.00;100455.50;10547459;27;20047;-72
2022/12/15 02:55:19;;;;;;;44.67;21.40;;;;;;;-5.34;100.00;100459.13;10580512;27;20039;-72
2022/12/15 03:00:20;;;;;;;48.97;23.57;;;;;;;-5.33;100.00;100463.50;10563525;27;20043;-72
2022/12/15 03:05:21;;;;;;;49.97;24.87;;;;;;;-5.31;100.00;100472.22;10566471;27;20091;-71
2022/12/15 03:10:22;;;;;;;49.60;22.77;;;;;;;-5.45;100.00;100480.88;10554026;28;20036;-72
2022/12/15 03:15:23;;;;;;;39.53;21.00;;;;;;;-5.53;100.00;100490.56;10563600;27;20065;-72
2022/12/15 03:20:23;;;;;;;45.00;23.97;;;;;;;-5.51;100.00;100495.75;10559982;27;20089;-72
2022/12/15 03:25:24;;;;;;;42.23;21.97;;;;;;;-5.49;100.00;100496.44;10592374;27;20027;-71
2022/12/15 03:30:24;;;;;;;48.53;23.20;;;;;;;-5.44;100.00;100487.91;10556973;27;20031;-72
2022/12/15 03:35:25;;;;;;;46.67;23.03;;;;;;;-5.31;100.00;100499.06;10566371;28;20035;-71
2022/12/15 03:40:25;;;;;;;43.43;22.33;;;;;;;-5.24;100.00;100500.09;10573066;27;20031;-71
2022/12/15 03:45:26;;;;;;;44.77;22.93;;;;;;;-5.04;100.00;100524.00;10579540;27;20105;-71
2022/12/15 03:50:27;;;;;;;45.83;24.67;;;;;;;-4.98;100.00;100515.28;10549280;27;20044;-72
2022/12/15 03:55:28;;;;;;;45.70;21.43;;;;;;;-5.14;100.00;100503.50;10556727;27;20058;-72
2022/12/15 04:00:29;;;;;;;38.80;22.83;;;;;;;-5.43;100.00;100460.94;10544493;27;20043;-72
2022/12/15 04:05:31;;;;;;;44.67;21.73;;;;;;;-5.15;100.00;100504.47;10581947;27;20027;-72
2022/12/15 04:10:33;;;;;;;43.23;22.53;;;;;;;-5.05;100.00;100515.09;10565079;28;20047;-72
2022/12/15 04:15:34;;;;;;;38.87;21.13;;;;;;;-5.02;100.00;100503.19;10565094;27;20121;-72
2022/12/15 04:20:34;;;;;;;41.83;20.43;;;;;;;-4.95;100.00;100517.66;10567260;27;20077;-72
2022/12/15 05:35:22;;;;;;;38.70;21.30;;;;;;;-5.17;100.00;100509.16;10602063;28;20093;-72
2022/12/15 05:40:23;;;;;;;43.57;20.33;;;;;;;-5.16;100.00;100508.19;10582326;28;20036;-72
2022/12/15 05:45:23;;;;;;;35.67;21.63;;;;;;;-5.05;100.00;100520.47;10584536;28;20127;-72
2022/12/15 05:50:24;;;;;;;35.60;20.40;;;;;;;-4.94;100.00;100501.41;10564716;28;20035;-73
2022/12/15 05:55:25;;;;;;;43.53;21.90;;;;;;;-4.86;100.00;100505.94;10581358;28;20054;-72
2022/12/15 06:00:25;;;;;;;35.77;19.20;;;;;;;-4.88;100.00;100494.50;10565307;27;20072;-72
2022/12/15 06:05:26;;;;;;;33.93;17.53;;;;;;;-4.94;100.00;100514.81;10592050;28;20632;-70
2022/12/15 06:10:26;;;;;;;32.40;18.77;;;;;;;-4.92;100.00;100531.63;10554293;28;20050;-72
2022/12/15 06:15:27;;;;;;;34.60;18.07;;;;;;;-4.90;100.00;100528.75;10521324;28;20032;-72
2022/12/15 06:20:27;;;;;;;34.40;17.70;;;;;;;-4.80;100.00;100539.34;10554170;27;20032;-72
2022/12/15 06:25:28;;;;;;;30.03;18.63;;;;;;;-4.79;100.00;100541.88;10576986;27;20411;-73
2022/12/15 06:30:29;;;;;;;35.77;17.43;;;;;;;-4.75;100.00;100539.72;10577114;27;20042;-72
2022/12/15 06:35:29;;;;;;;32.83;18.60;;;;;;;-4.74;100.00;100534.16;10546898;27;20104;-72
2022/12/15 06:40:30;;;;;;;28.17;17.63;;;;;;;-4.70;100.00;100551.66;10561280;27;20098;-73
2022/12/15 06:45:30;;;;;;;28.23;16.23;;;;;;;-4.63;100.00;100554.53;10578411;27;20039;-72
2022/12/15 06:50:31;;;;;;;32.63;16.27;;;;;;;-4.63;100.00;100556.38;10566259;27;20051;-72
2022/12/15 06:55:31;;;;;;;30.97;18.03;;;;;;;-4.68;100.00;100546.94;10538075;28;20036;-73
2022/12/15 07:00:35;;;;;;;26.87;15.73;;;;;;;-4.45;100.00;100557.09;10550305;28;20047;-72
2022/12/15 07:05:36;;;;;;;27.93;14.40;;;;;;;-4.45;100.00;100557.09;10534001;28;20508;-72
2022/12/15 07:10:38;;;;;;;27.10;14.30;;;;;;;-4.38;100.00;100571.56;10533646;28;20099;-72
2022/12/15 07:15:39;;;;;;;26.07;13.57;;;;;;;-4.41;100.00;100555.75;10534869;28;20031;-72
2022/12/15 07:20:39;;;;;;;25.07;13.67;;;;;;;-4.36;100.00;100574.06;10515211;27;20487;-70
2022/12/15 07:25:40;;;;;;;22.30;14.80;;;;;;;-4.38;100.00;100576.94;10533940;28;20047;-72
2022/12/15 07:30:40;;;;;;;23.23;13.20;;;;;;;-4.41;100.00;100593.38;10567104;28;20035;-72
2022/12/15 07:35:41;;;;;;;23.33;13.73;;;;;;;-4.40;100.00;100603.13;10567045;28;20051;-72
2022/12/15 07:40:41;;;;;;;27.10;14.90;;;;;;;-4.45;100.00;100589.34;10551673;28;20031;-72
2022/12/15 07:45:42;;;;;;;28.10;15.50;;;;;;;-4.56;100.00;100587.78;10567934;28;20039;-73
2022/12/15 07:50:42;;;;;;;25.40;15.57;;;;;;;-4.49;100.00;100613.00;10549959;27;20035;-72
2022/12/15 07:55:43;;;;;;;26.67;15.93;;;;;;;-4.55;100.00;100607.44;10566772;27;20035;-72
2022/12/15 08:00:43;;;;;;;28.87;15.50;;;;;;;-4.94;100.00;100560.47;10567657;28;20059;-72
2022/12/15 08:05:44;;;;;;;31.13;16.03;;;;;;;-4.40;100.00;100623.78;10550580;28;20042;-71
2022/12/15 08:10:44;;;;;;;27.23;15.10;;;;;;;-4.42;100.00;100625.78;10588348;27;20044;-72
2022/12/15 08:15:45;;;;;;;36.80;17.13;;;;;;;-4.35;100.00;100643.78;10551153;28;20042;-72
2022/12/15 08:20:45;;;;;;;31.20;16.57;;;;;;;-4.36;100.00;100626.00;10548833;28;20027;-72
2022/12/15 08:25:46;;;;;;;33.37;16.13;;;;;;;-4.28;100.00;100642.16;10583571;27;20062;-73
2022/12/15 08:30:48;;;;;;;24.37;14.20;;;;;;;-4.19;100.00;100659.13;10548613;28;20085;-72
2022/12/15 08:35:48;;;;;;;35.10;16.37;;;;;;;-4.19;100.00;100651.06;10549646;27;20036;-73
2022/12/15 08:40:49;;;;;;;28.87;15.57;;;;;;;-4.12;100.00;100645.88;10525841;28;20476;-72
2022/12/15 08:45:49;;;;;;;27.80;14.27;;;;;;;-4.14;100.00;100654.09;10524546;28;20434;-72
2022/12/15 08:50:50;;;;;;;24.07;15.60;;;;;;;-3.97;100.00;100659.50;10507260;28;20054;-73
2022/12/15 08:55:50;;;;;;;31.57;17.60;;;;;;;-3.79;100.00;100659.38;10522579;28;20039;-72
2022/12/15 09:00:51;;;;;;;26.07;16.30;;;;;;;-3.75;100.00;100641.91;10505972;28;20047;-73
2022/12/15 09:05:51;;;;;;;26.73;16.30;;;;;;;-3.61;100.00;100665.47;10522387;28;20043;-72
2022/12/15 09:10:52;;;;;;;26.70;16.10;;;;;;;-3.56;100.00;100665.78;10508853;28;20036;-72
2022/12/15 09:15:56;;;;;;;28.80;14.87;;;;;;;-3.43;100.00;100667.13;10524107;28;20040;-72
2022/12/15 09:21:01;;;;;;;26.57;14.90;;;;;;;-3.33;100.00;100657.03;10506606;28;20436;-73
2022/12/15 09:26:07;;;;;;;22.80;15.10;;;;;;;-3.12;100.00;100660.06;10523328;28;20048;-74
2022/12/15 09:31:15;;;;;;;26.30;14.80;;;;;;;-3.05;100.00;100661.06;10538467;28;20408;-74
2022/12/15 09:36:16;;;;;;;21.00;13.30;;;;;;;-2.92;100.00;100660.53;10542442;28;20035;-74
2022/12/15 09:41:26;;;;;;;20.03;15.53;;;;;;;-2.84;100.00;100659.69;10529449;27;20044;-74
2022/12/15 09:46:42;;;;;;;21.50;14.17;;;;;;;-2.66;100.00;100675.63;10535169;27;20063;-72
2022/12/15 09:51:47;;;;;;;23.25;14.93;;;;;;;-2.57;100.00;100673.75;10573514;27;20061;-73
2022/12/15 09:56:54;;;;;;;17.25;13.27;;;;;;;-2.46;100.00;100678.75;10489585;28;20107;-74
2022/12/15 10:01:59;;;;;;;22.73;13.83;;;;;;;-2.46;100.00;100657.19;10501323;27;20040;-73
2022/12/15 10:07:24;;;;;;;20.87;14.37;;;;;;;-2.30;100.00;100662.50;10545828;28;20040;-74
2022/12/15 10:12:28;;;;;;;21.27;12.70;;;;;;;-2.25;100.00;100656.63;10566917;27;20044;-73
2022/12/15 10:18:06;;;;;;;19.83;13.70;;;;;;;-2.12;100.00;100664.97;10538138;28;20046;-73
2022/12/15 10:23:13;;;;;;;14.50;11.80;;;;;;;-2.10;100.00;100659.41;10537475;27;20101;-74
2022/12/15 10:28:32;;;;;;;19.87;12.43;;;;;;;-1.85;100.00;100662.78;10533937;27;20557;-73
2022/12/15 10:33:36;;;;;;;19.50;12.33;;;;;;;-1.73;100.00;100676.72;10558527;27;20055;-73
2022/12/15 10:38:44;;;;;;;23.30;16.10;;;;;;;-1.70;100.00;100676.34;10520146;28;20453;-73
2022/12/15 10:43:46;;;;;;;20.63;14.30;;;;;;;-1.55;100.00;100674.56;10553931;27;20039;-74
2022/12/15 10:48:50;;;;;;;21.80;13.43;;;;;;;-1.44;100.00;100663.34;10529473;27;20333;-73
2022/12/15 10:54:05;;;;;;;23.43;13.90;;;;;;;-1.23;100.00;100661.81;10552973;28;20138;-73
2022/12/15 10:59:24;;;;;;;18.63;12.67;;;;;;;-1.10;100.00;100645.81;10468369;28;20376;-73
2022/12/15 11:04:28;;;;;;;21.77;13.37;;;;;;;-0.70;100.00;100673.47;10499051;28;20174;-73
2022/12/15 11:09:33;;;;;;;23.43;11.27;;;;;;;-0.58;100.00;100675.69;10481049;28;20063;-76
2022/12/15 11:14:47;;;;;;;17.90;10.37;;;;;;;-0.45;100.00;100665.09;10467597;28;20037;-74
2022/12/15 11:19:59;;;;;;;17.80;10.33;;;;;;;-0.30;100.00;100668.59;10454222;28;20224;-74
2022/12/15 11:25:19;;;;;;;13.70;10.37;;;;;;;-0.15;100.00;100670.44;10442345;28;20037;-73
2022/12/15 11:30:21;;;;;;;36.50;11.10;;;;;;;-0.01;100.00;100666.88;10443036;28;20060;-73
2022/12/15 11:35:28;;;;;;;14.07;8.77;;;;;;;0.08;100.00;100675.72;10427683;28;20041;-74
2022/12/15 11:40:35;;;;;;;17.07;10.13;;;;;;;0.16;100.00;100665.59;10428814;28;20041;-74
2022/12/15 11:45:35;;;;;;;;;;;;;;;0.24;100.00;100674.66;10460388;28;20052;-74
2022/12/15 11:50:57;;;;;;;20.10;9.50;;;;;;;0.42;100.00;100672.34;10449461;28;20015;-73
2022/12/15 11:56:15;;;;;;;16.10;10.10;;;;;;;0.51;100.00;100660.34;10505498;28;20066;-74
2022/12/15 12:01:36;;;;;;;14.53;9.83;;;;;;;0.60;100.00;100669.22;10525319;28;20488;-74
2022/12/15 12:07:00;;;;;;;21.80;9.10;;;;;;;0.27;100.00;100655.31;10531130;28;20538;-73
2022/12/15 12:12:07;;;;;;;15.67;9.27;;;;;;;0.28;100.00;100671.38;10540609;28;20028;-73
2022/12/15 12:17:12;;;;;;;14.37;9.57;;;;;;;0.31;100.00;100657.47;10565555;28;20036;-74
2022/12/15 12:22:21;;;;;;;17.05;9.63;;;;;;;0.53;100.00;100673.72;10535565;28;20100;-74
2022/12/15 12:27:30;;;;;;;16.13;8.57;;;;;;;0.60;100.00;100670.03;10506281;28;20124;-74
2022/12/15 12:32:55;;;;;;;18.23;9.20;;;;;;;0.64;100.00;100645.25;10525206;28;20452;-75
2022/12/15 12:38:01;;;;;;;14.27;8.57;;;;;;;0.77;100.00;100645.38;10523114;28;20043;-76
2022/12/15 12:43:01;;;;;;;14.90;9.45;;;;;;;0.57;100.00;100589.16;10528388;28;20148;-76
2022/12/15 12:48:07;;;;;;;14.43;7.63;;;;;;;1.31;100.00;100641.19;10542733;28;20580;-76
2022/12/15 12:53:30;;;;;;;21.08;6.95;;;;;;;1.91;100.00;100638.78;10505726;28;20062;-75
2022/12/15 12:58:36;;;;;;;11.85;6.43;;;;;;;2.78;100.00;100627.00;10513159;28;20032;-76
2022/12/15 13:03:40;;;;;;;13.48;7.45;;;;;;;3.25;100.00;100610.66;10560394;28;20042;-75
2022/12/15 13:08:49;;;;;;;10.80;6.73;;;;;;;3.60;100.00;100616.63;10544604;28;20066;-76
2022/12/15 13:13:50;;;;;;;11.70;5.55;;;;;;;3.75;100.00;100613.63;10561362;28;20040;-76
2022/12/15 13:19:03;;;;;;;14.90;5.85;;;;;;;4.23;100.00;100615.06;10529482;27;20032;-76
2022/12/15 13:24:04;;;;;;;12.95;6.50;;;;;;;4.73;100.00;100611.56;10574336;27;20488;-77
2022/12/15 13:29:04;;;;;;;14.02;7.63;;;;;;;4.53;100.00;100604.41;10556186;27;20039;-74
2022/12/15 13:34:19;;;;;;;14.85;8.20;;;;;;;3.55;100.00;100601.97;10556360;28;20032;-74
2022/12/15 13:39:19;;;;;;;17.52;9.52;;;;;;;2.60;100.00;100627.66;10573455;27;20050;-74
2022/12/15 13:44:22;;;;;;;12.57;8.35;;;;;;;2.06;100.00;100639.44;10560517;28;20048;-76
2022/12/15 13:49:27;;;;;;;15.90;8.15;;;;;;;1.66;100.00;100636.59;10532790;28;20126;-76
2022/12/15 13:54:33;;;;;;;14.52;9.07;;;;;;;1.13;100.00;100615.41;10550787;27;20103;-76
2022/12/15 13:59:39;;;;;;;13.60;8.63;;;;;;;0.94;100.00;100633.22;10589007;27;20104;-76
2022/12/15 14:04:39;;;;;;;17.17;11.63;;;;;;;0.87;100.00;100637.75;10605695;27;20093;-76
2022/12/15 14:09:40;;;;;;;17.53;11.13;;;;;;;0.68;100.00;100622.16;10555054;27;20028;-76
2022/12/15 14:14:47;;;;;;;14.02;10.07;;;;;;;0.52;100.00;100616.00;10518323;28;20040;-76
2022/12/15 14:19:48;;;;;;;21.77;11.63;;;;;;;0.48;100.00;100632.84;10530177;28;20123;-76
2022/12/15 14:24:49;;;;;;;18.90;10.73;;;;;;;0.42;100.00;100629.03;10545597;28;20044;-74
2022/12/15 14:29:49;;;;;;;21.43;12.43;;;;;;;0.36;100.00;100618.97;10561528;28;20036;-74
2022/12/15 14:34:50;;;;;;;16.33;10.33;;;;;;;0.32;100.00;100633.94;10527698;28;20421;-74
2022/12/15 14:39:51;;;;;;;20.57;11.57;;;;;;;-0.11;100.00;100612.22;10526501;28;20039;-77
2022/12/15 14:44:51;;;;;;;18.87;13.67;;;;;;;-0.24;100.00;100624.56;10533139;28;20036;-76
2022/12/15 14:49:52;;;;;;;19.53;13.30;;;;;;;-0.42;100.00;100611.44;10519025;28;20065;-76
2022/12/15 14:54:54;;;;;;;23.70;13.97;;;;;;;-0.29;100.00;100634.25;10493714;28;20036;-75
2022/12/15 14:59:55;;;;;;;29.40;17.30;;;;;;;-0.30;100.00;100629.91;10529232;28;20047;-75
2022/12/15 15:05:02;;;;;;;27.60;15.40;;;;;;;-0.31;100.00;100628.22;10543248;27;20040;-76
2022/12/15 15:10:03;;;;;;;25.60;17.00;;;;;;;-0.39;100.00;100626.47;10586551;28;20042;-75
2022/12/15 15:15:05;;;;;;;24.73;17.50;;;;;;;-0.42;100.00;100626.81;10553926;27;20037;-75
2022/12/15 15:20:16;;;;;;;28.20;16.63;;;;;;;-0.40;100.00;100635.59;10567341;27;20039;-75
2022/12/15 15:25:32;;;;;;;26.97;16.47;;;;;;;-0.45;100.00;100627.22;10552066;27;20511;-74
2022/12/15 15:30:43;;;;;;;26.58;18.20;;;;;;;-0.99;100.00;100565.31;10586282;27;20043;-76
2022/12/15 15:35:45;;;;;;;26.57;17.53;;;;;;;-0.85;100.00;100632.91;10567956;27;20074;-75
2022/12/15 15:40:50;;;;;;;31.90;20.00;;;;;;;-0.85;100.00;100632.06;10569281;27;20043;-75
2022/12/15 15:46:01;;;;;;;39.97;19.93;;;;;;;-0.82;100.00;100635.25;10583852;27;20024;-76
2022/12/15 15:51:01;;;;;;;29.30;19.63;;;;;;;-0.74;100.00;100634.31;10517478;28;20036;-74
2022/12/15 15:56:05;;;;;;;31.93;20.70;;;;;;;-0.69;100.00;100631.88;10504808;28;20103;-76
2022/12/15 16:01:05;;;;;;;29.27;20.07;;;;;;;-0.59;100.00;100630.78;10506040;28;20040;-75
2022/12/15 16:06:18;;;;;;;27.53;19.00;;;;;;;-0.51;100.00;100617.16;10509295;28;20044;-76
2022/12/15 16:11:20;;;;;;;32.47;20.73;;;;;;;-0.51;100.00;100628.81;10527473;28;20132;-76
2022/12/15 16:16:22;;;;;;;27.10;18.70;;;;;;;-0.55;100.00;100632.91;10525081;27;20070;-76
2022/12/15 16:21:24;;;;;;;26.07;17.67;;;;;;;-0.64;100.00;100613.25;10539879;28;20066;-75
2022/12/15 16:26:27;;;;;;;30.87;19.27;;;;;;;-0.73;100.00;100622.47;10507871;28;20044;-75
2022/12/15 16:31:30;;;;;;;32.90;20.40;;;;;;;-0.74;100.00;100633.47;10491775;28;20487;-76
2022/12/15 16:36:31;;;;;;;31.30;19.73;;;;;;;-0.74;100.00;100647.84;10509038;28;20035;-75
2022/12/15 16:41:31;;;;;;;29.60;19.57;;;;;;;-0.75;100.00;100642.59;10541098;28;20059;-75
2022/12/15 16:46:32;;;;;;;32.60;20.67;;;;;;;-0.68;100.00;100666.00;10507496;28;20306;-76
2022/12/15 16:51:41;;;;;;;33.97;20.53;;;;;;;-0.74;100.00;100644.28;10506411;28;20043;-75
2022/12/15 16:56:41;;;;;;;34.80;21.00;;;;;;;-0.73;100.00;100652.19;10540718;28;20051;-75
2022/12/15 17:01:42;;;;;;;36.27;22.17;;;;;;;-0.70;100.00;100669.94;10508240;28;20062;-75
2022/12/15 17:06:42;;;;;;;35.50;20.27;;;;;;;-0.71;100.00;100670.94;10525000;28;20396;-75
2022/12/15 17:11:43;;;;;;;37.57;24.20;;;;;;;-0.78;100.00;100676.25;10489737;28;20369;-76
2022/12/15 17:16:43;;;;;;;31.10;20.60;;;;;;;-0.86;100.00;100673.63;10540509;28;20028;-75
2022/12/15 17:21:46;;;;;;;30.83;21.40;;;;;;;-0.86;100.00;100679.03;10565721;28;20043;-75
2022/12/15 17:26:46;;;;;;;32.30;21.13;;;;;;;-0.85;100.00;100675.31;10529831;28;20040;-75
2022/12/15 17:31:47;;;;;;;33.43;23.07;;;;;;;-0.90;100.00;100688.53;10522881;28;20492;-74
2022/12/15 17:36:47;;;;;;;38.93;24.23;;;;;;;-0.92;100.00;100688.72;10539001;28;20399;-76
2022/12/15 17:41:49;;;;;;;36.67;23.10;;;;;;;-0.97;100.00;100687.56;10563982;28;20043;-76
2022/12/15 17:46:50;;;;;;;36.27;23.90;;;;;;;-0.91;100.00;100686.84;10545601;28;20523;-74
2022/12/15 17:51:51;;;;;;;36.70;23.70;;;;;;;-0.93;100.00;100688.91;10518116;27;20071;-76
2022/12/15 17:56:51;;;;;;;36.70;24.87;;;;;;;-1.01;100.00;100681.72;10515003;28;21162;-76
2022/12/15 18:01:55;;;;;;;33.27;22.97;;;;;;;-0.97;100.00;100698.38;10537722;28;20040;-76
2022/12/15 18:06:56;;;;;;;37.67;23.73;;;;;;;-1.01;100.00;100708.75;10555781;27;20077;-76
2022/12/15 18:11:56;;;;;;;42.00;23.80;;;;;;;-1.05;100.00;100702.84;10540540;28;20072;-76
2022/12/15 18:16:57;;;;;;;40.17;22.97;;;;;;;-1.24;100.00;100687.13;10541445;27;20044;-75
2022/12/15 18:21:57;;;;;;;39.13;23.47;;;;;;;-1.19;100.00;100705.53;10549153;27;20032;-75
2022/12/15 18:26:58;;;;;;;40.87;25.97;;;;;;;-1.24;100.00;100703.34;10550950;27;20128;-76
2022/12/15 18:31:58;;;;;;;43.07;25.03;;;;;;;-1.25;100.00;100713.31;10539049;28;20044;-75
2022/12/15 18:36:59;;;;;;;42.73;24.20;;;;;;;-1.37;100.00;100708.53;10536104;27;20336;-73
2022/12/15 18:41:59;;;;;;;37.93;24.33;;;;;;;-1.56;100.00;100705.28;10569545;27;20051;-75
2022/12/15 18:47:00;;;;;;;40.57;25.43;;;;;;;-1.56;100.00;100748.47;10550323;27;20040;-75
2022/12/15 18:52:00;;;;;;;43.10;25.37;;;;;;;-1.62;100.00;100743.78;10564601;27;20032;-74
2022/12/15 18:57:01;;;;;;;41.17;27.67;;;;;;;-1.69;100.00;100734.72;10547590;27;20401;-75
2022/12/15 19:02:01;;;;;;;47.43;28.27;;;;;;;-1.63;100.00;100750.22;10543076;27;20070;-74
2022/12/15 19:07:05;;;;;;;52.30;27.70;;;;;;;-1.99;100.00;100691.34;10534694;27;20032;-74
2022/12/15 19:12:16;;;;;;;42.47;27.73;;;;;;;-1.56;100.00;100753.88;10583472;27;20044;-74
2022/12/15 19:22:38;;;;;;;47.40;29.90;;;;;;;-1.53;100.00;100758.94;10552840;27;20038;-74
2022/12/15 19:27:38;;;;;;;48.43;29.53;;;;;;;-1.50;100.00;100779.31;10519752;28;20059;-74
2022/12/15 19:32:39;;;;;;;42.83;28.00;;;;;;;-1.69;100.00;100759.03;10532642;28;20032;-74
2022/12/15 19:37:40;;;;;;;44.13;29.33;;;;;;;-1.70;100.00;100781.63;10540898;28;20086;-74
2022/12/15 19:42:43;;;;;;;48.87;29.07;;;;;;;-1.92;100.00;100785.94;10519507;28;20032;-75
2022/12/15 19:47:43;;;;;;;47.67;29.53;;;;;;;-1.90;100.00;100806.34;10522964;28;20064;-73
2022/12/15 19:52:45;;;;;;;52.50;32.60;;;;;;;-1.98;100.00;100787.47;10530626;28;20036;-74
2022/12/15 19:57:46;;;;;;;48.53;30.00;;;;;;;-1.77;100.00;100811.19;10580255;27;20039;-73
2022/12/15 20:02:51;;;;;;;51.77;31.77;;;;;;;-1.74;100.00;100815.38;10563406;27;20032;-74
2022/12/15 20:07:52;;;;;;;49.93;30.30;;;;;;;-1.69;100.00;100823.81;10535175;27;20039;-74
2022/12/15 20:12:52;;;;;;;50.13;31.10;;;;;;;-1.81;100.00;100820.63;10560259;27;20039;-75
2022/12/15 20:17:56;;;;;;;51.40;31.87;;;;;;;-1.73;100.00;100838.66;10544925;27;20031;-74
2022/12/15 20:22:58;;;;;;;49.67;30.90;;;;;;;-1.78;100.00;100817.56;10576964;27;20515;-73
2022/12/15 20:27:59;;;;;;;53.23;31.33;;;;;;;-1.79;100.00;100815.91;10515535;28;20059;-74
2022/12/15 20:33:03;;;;;;;54.90;33.10;;;;;;;-1.73;100.00;100835.97;10504495;28;20408;-74
2022/12/15 20:38:17;;;;;;;48.60;31.40;;;;;;;-1.70;100.00;100838.31;10503342;28;20107;-74
2022/12/15 20:43:19;;;;;;;53.00;31.97;;;;;;;-1.68;100.00;100841.66;10528564;28;20043;-74
2022/12/15 20:48:19;;;;;;;54.50;32.37;;;;;;;-1.76;100.00;100826.34;10560726;28;20032;-74
2022/12/15 20:53:22;;;;;;;50.83;33.17;;;;;;;-1.65;100.00;100846.72;10532230;28;20058;-75
2022/12/15 20:58:23;;;;;;;56.20;35.20;;;;;;;-1.71;100.00;100833.94;10567307;28;20040;-75
2022/12/15 21:03:39;;;;;;;47.40;31.23;;;;;;;-1.58;100.00;100849.56;10516765;28;20044;-75
2022/12/15 21:08:40;;;;;;;53.67;31.83;;;;;;;-1.50;100.00;100860.34;10524640;28;20072;-75
2022/12/15 21:13:41;;;;;;;56.17;32.47;;;;;;;-1.48;100.00;100856.44;10541329;28;20041;-75
2022/12/15 21:18:42;;;;;;;49.33;32.17;;;;;;;-1.48;100.00;100861.81;10542837;28;20020;-75
2022/12/15 21:23:42;;;;;;;50.93;33.37;;;;;;;-1.47;100.00;100857.25;10561824;28;20228;-74
2022/12/15 21:28:43;;;;;;;52.27;32.47;;;;;;;-1.46;100.00;100870.59;10545993;28;20032;-75
2022/12/15 21:33:45;;;;;;;53.80;31.30;;;;;;;-1.51;100.00;100864.91;10547750;28;20047;-75
2022/12/15 21:38:47;;;;;;;46.03;31.03;;;;;;;-1.51;100.00;100862.19;10569438;27;20036;-75
2022/12/15 21:43:47;;;;;;;56.37;32.63;;;;;;;-1.49;100.00;100867.41;10545733;27;20042;-74
2022/12/15 21:54:16;;;;;;;49.27;29.87;;;;;;;-1.40;100.00;100881.72;10575175;27;20047;-75
2022/12/15 21:59:21;;;;;;;49.33;30.07;;;;;;;-1.47;100.00;100865.38;10552061;27;20040;-75
2022/12/15 22:04:27;;;;;;;51.27;32.53;;;;;;;-1.40;100.00;100884.44;10555270;27;20060;-75
2022/12/15 22:09:27;;;;;;;53.28;31.75;;;;;;;-1.39;100.00;100896.91;10554041;27;20028;-74
2022/12/15 22:14:29;;;;;;;50.20;31.57;;;;;;;-1.37;100.00;100898.41;10552956;27;20032;-75
2022/12/15 22:19:29;;;;;;;49.37;32.77;;;;;;;-1.42;100.00;100898.94;10537773;27;20035;-74
2022/12/15 22:24:30;;;;;;;54.63;32.90;;;;;;;-1.39;100.00;100892.34;10552617;27;20116;-74
2022/12/15 22:29:30;;;;;;;57.47;34.50;;;;;;;-1.43;100.00;100878.38;10586010;27;20036;-75
2022/12/15 22:34:31;;;;;;;59.10;34.20;;;;;;;-1.45;100.00;100891.19;10524950;27;20054;-75
2022/12/15 22:39:32;;;;;;;53.40;33.67;;;;;;;-1.47;100.00;100908.56;10551937;27;20047;-75
2022/12/15 22:44:34;;;;;;;63.57;35.90;;;;;;;-1.57;100.00;100908.78;10553468;27;20065;-74
2022/12/15 22:49:38;;;;;;;60.70;36.43;;;;;;;-1.56;100.00;100905.06;10552147;27;20039;-74
2022/12/15 22:54:38;;;;;;;59.53;36.00;;;;;;;-1.60;100.00;100895.63;10568640;27;20057;-74
2022/12/15 22:59:40;;;;;;;59.87;36.13;;;;;;;-1.52;100.00;100913.66;10568158;27;20069;-74
2022/12/15 23:04:41;;;;;;;63.23;36.03;;;;;;;-1.66;100.00;100909.81;10539916;28;20424;-74
2022/12/15 23:09:41;;;;;;;62.73;38.27;;;;;;;-1.72;100.00;100913.22;10568541;27;20031;-75
2022/12/15 23:20:21;;;;;;;62.20;39.83;;;;;;;-1.82;100.00;100910.69;10467275;28;20047;-73
2022/12/15 23:25:22;;;;;;;71.50;41.37;;;;;;;-1.83;100.00;100909.03;10522369;27;20040;-74
2022/12/15 23:30:23;;;;;;;71.33;41.17;;;;;;;-1.81;100.00;100900.75;10532801;27;20043;-75
2022/12/15 23:35:24;;;;;;;64.53;41.13;;;;;;;-2.17;100.00;100855.28;10583765;27;20062;-75
2022/12/15 23:40:24;;;;;;;72.47;41.80;;;;;;;-1.73;100.00;100925.03;10552178;28;20039;-75
2022/12/15 23:45:25;;;;;;;72.60;41.10;;;;;;;-1.76;100.00;100903.78;10551374;27;20031;-75
2022/12/15 23:50:25;;;;;;;70.30;42.93;;;;;;;-1.68;100.00;100917.25;10552389;27;20032;-75
2022/12/15 23:55:26;;;;;;;74.07;43.63;;;;;;;-1.68;100.00;100911.84;10583095;27;20057;-73
